sensor_id;sensor_type;location;lat;lon;timestamp;pressure;altitude;pressure_sealevel;temperature;humidity
6567;BME280;3317;43.994;22.878;2023-04-28T00:00:56;101403.31;;;10.22;43.29
6567;BME280;3317;43.994;22.878;2023-04-28T00:03:23;101397.16;;;10.20;43.11
6567;BME280;3317;43.994;22.878;2023-04-28T00:05:52;101395.47;;;10.19;43.46
6567;BME280;3317;43.994;22.878;2023-04-28T00:08:18;101398.03;;;10.21;42.99
6567;BME280;3317;43.994;22.878;2023-04-28T00:10:46;101406.44;;;10.18;42.95
6567;BME280;3317;43.994;22.878;2023-04-28T00:13:13;101402.16;;;10.15;43.41
6567;BME280;3317;43.994;22.878;2023-04-28T00:15:42;101406.56;;;10.16;43.16
6567;BME280;3317;43.994;22.878;2023-04-28T00:18:08;101399.16;;;10.18;42.81
6567;BME280;3317;43.994;22.878;2023-04-28T00:20:35;101405.44;;;10.19;43.14
6567;BME280;3317;43.994;22.878;2023-04-28T00:23:02;101407.16;;;10.20;43.00
6567;BME280;3317;43.994;22.878;2023-04-28T00:25:29;101403.56;;;10.19;42.85
6567;BME280;3317;43.994;22.878;2023-04-28T00:27:57;101406.28;;;10.19;43.15
6567;BME280;3317;43.994;22.878;2023-04-28T00:30:24;101402.59;;;10.20;42.94
6567;BME280;3317;43.994;22.878;2023-04-28T00:32:52;101406.56;;;10.16;43.38
6567;BME280;3317;43.994;22.878;2023-04-28T00:35:19;101405.69;;;10.15;43.29
6567;BME280;3317;43.994;22.878;2023-04-28T00:37:46;101403.72;;;10.18;43.50
6567;BME280;3317;43.994;22.878;2023-04-28T00:40:13;101408.56;;;10.14;43.34
6567;BME280;3317;43.994;22.878;2023-04-28T00:42:40;101416.81;;;10.12;43.38
6567;BME280;3317;43.994;22.878;2023-04-28T00:45:07;101417.91;;;10.10;43.54
6567;BME280;3317;43.994;22.878;2023-04-28T00:47:36;101418.06;;;10.08;43.71
6567;BME280;3317;43.994;22.878;2023-04-28T00:50:05;101418.47;;;10.04;43.54
6567;BME280;3317;43.994;22.878;2023-04-28T00:52:32;101415.03;;;10.02;43.63
6567;BME280;3317;43.994;22.878;2023-04-28T00:54:59;101426.00;;;10.00;43.91
6567;BME280;3317;43.994;22.878;2023-04-28T00:57:26;101428.09;;;9.96;43.74
6567;BME280;3317;43.994;22.878;2023-04-28T00:59:53;101430.25;;;9.93;44.01
6567;BME280;3317;43.994;22.878;2023-04-28T01:02:20;101430.63;;;9.88;44.48
6567;BME280;3317;43.994;22.878;2023-04-28T01:04:47;101432.34;;;9.89;43.72
6567;BME280;3317;43.994;22.878;2023-04-28T01:07:17;101415.44;;;9.76;44.24
6567;BME280;3317;43.994;22.878;2023-04-28T01:09:44;101438.28;;;9.83;44.32
6567;BME280;3317;43.994;22.878;2023-04-28T01:12:12;101440.25;;;9.81;44.23
6567;BME280;3317;43.994;22.878;2023-04-28T01:14:39;101439.28;;;9.82;44.24
6567;BME280;3317;43.994;22.878;2023-04-28T01:17:07;101442.97;;;9.81;44.43
6567;BME280;3317;43.994;22.878;2023-04-28T01:19:34;101452.09;;;9.80;44.31
6567;BME280;3317;43.994;22.878;2023-04-28T01:22:02;101446.81;;;9.78;43.75
6567;BME280;3317;43.994;22.878;2023-04-28T01:24:30;101451.47;;;9.76;44.13
6567;BME280;3317;43.994;22.878;2023-04-28T01:26:57;101449.91;;;9.74;44.59
6567;BME280;3317;43.994;22.878;2023-04-28T01:29:24;101451.16;;;9.69;44.45
6567;BME280;3317;43.994;22.878;2023-04-28T01:31:51;101450.31;;;9.69;44.18
6567;BME280;3317;43.994;22.878;2023-04-28T01:34:17;101462.25;;;9.66;44.22
6567;BME280;3317;43.994;22.878;2023-04-28T01:36:45;101465.22;;;9.63;43.99
6567;BME280;3317;43.994;22.878;2023-04-28T01:39:11;101477.03;;;9.62;44.22
6567;BME280;3317;43.994;22.878;2023-04-28T01:41:40;101463.78;;;9.59;44.49
6567;BME280;3317;43.994;22.878;2023-04-28T01:44:07;101471.88;;;9.59;44.35
6567;BME280;3317;43.994;22.878;2023-04-28T01:46:36;101476.44;;;9.58;44.36
6567;BME280;3317;43.994;22.878;2023-04-28T01:49:03;101452.75;;;9.39;44.19
6567;BME280;3317;43.994;22.878;2023-04-28T01:51:30;101479.13;;;9.58;44.05
6567;BME280;3317;43.994;22.878;2023-04-28T01:53:57;101486.38;;;9.58;43.81
6567;BME280;3317;43.994;22.878;2023-04-28T01:56:24;101486.53;;;9.56;43.85
6567;BME280;3317;43.994;22.878;2023-04-28T01:58:52;101485.41;;;9.59;43.21
6567;BME280;3317;43.994;22.878;2023-04-28T02:01:19;101488.13;;;9.59;43.32
6567;BME280;3317;43.994;22.878;2023-04-28T02:03:46;101488.25;;;9.57;43.89
6567;BME280;3317;43.994;22.878;2023-04-28T02:06:13;101489.22;;;9.56;42.51
6567;BME280;3317;43.994;22.878;2023-04-28T02:08:40;101492.06;;;9.55;43.05
6567;BME280;3317;43.994;22.878;2023-04-28T02:11:07;101494.75;;;9.55;43.78
6567;BME280;3317;43.994;22.878;2023-04-28T02:13:33;101504.97;;;9.51;44.68
6567;BME280;3317;43.994;22.878;2023-04-28T02:16:02;101497.84;;;9.50;43.82
6567;BME280;3317;43.994;22.878;2023-04-28T02:18:29;101506.94;;;9.49;43.57
6567;BME280;3317;43.994;22.878;2023-04-28T02:20:56;101516.94;;;9.49;42.96
6567;BME280;3317;43.994;22.878;2023-04-28T02:23:23;101514.34;;;9.47;43.86
6567;BME280;3317;43.994;22.878;2023-04-28T02:25:59;101516.69;;;9.40;43.63
6567;BME280;3317;43.994;22.878;2023-04-28T02:28:26;101524.56;;;9.43;44.05
6567;BME280;3317;43.994;22.878;2023-04-28T02:31:04;101514.00;;;9.40;44.37
6567;BME280;3317;43.994;22.878;2023-04-28T02:33:31;101521.38;;;9.38;43.69
6567;BME280;3317;43.994;22.878;2023-04-28T02:35:58;101522.38;;;9.37;44.14
6567;BME280;3317;43.994;22.878;2023-04-28T02:38:25;101528.88;;;9.35;44.26
6567;BME280;3317;43.994;22.878;2023-04-28T02:40:57;101535.81;;;9.27;44.89
6567;BME280;3317;43.994;22.878;2023-04-28T02:43:24;101530.75;;;9.23;45.43
6567;BME280;3317;43.994;22.878;2023-04-28T02:45:51;101533.94;;;9.16;45.27
6567;BME280;3317;43.994;22.878;2023-04-28T02:48:20;101530.66;;;9.13;45.31
6567;BME280;3317;43.994;22.878;2023-04-28T02:50:47;101533.59;;;9.10;45.52
6567;BME280;3317;43.994;22.878;2023-04-28T02:53:14;101540.13;;;9.07;45.52
6567;BME280;3317;43.994;22.878;2023-04-28T02:55:41;101538.53;;;9.05;44.55
6567;BME280;3317;43.994;22.878;2023-04-28T02:58:08;101534.94;;;9.04;44.11
6567;BME280;3317;43.994;22.878;2023-04-28T03:00:35;101543.22;;;9.02;43.87
6567;BME280;3317;43.994;22.878;2023-04-28T03:03:02;101532.63;;;8.99;44.00
6567;BME280;3317;43.994;22.878;2023-04-28T03:05:30;101526.47;;;8.97;44.66
6567;BME280;3317;43.994;22.878;2023-04-28T03:07:57;101537.44;;;8.96;45.68
6567;BME280;3317;43.994;22.878;2023-04-28T03:10:24;101546.91;;;8.90;46.49
6567;BME280;3317;43.994;22.878;2023-04-28T03:12:51;101550.69;;;8.87;46.63
6567;BME280;3317;43.994;22.878;2023-04-28T03:15:18;101554.63;;;8.83;46.35
6567;BME280;3317;43.994;22.878;2023-04-28T03:17:45;101553.91;;;8.81;46.35
6567;BME280;3317;43.994;22.878;2023-04-28T03:20:12;101554.00;;;8.80;46.36
6567;BME280;3317;43.994;22.878;2023-04-28T03:22:41;101560.50;;;8.77;45.49
6567;BME280;3317;43.994;22.878;2023-04-28T03:25:08;101557.06;;;8.75;46.40
6567;BME280;3317;43.994;22.878;2023-04-28T03:27:35;101554.63;;;8.72;46.70
6567;BME280;3317;43.994;22.878;2023-04-28T03:30:02;101567.41;;;8.70;45.98
6567;BME280;3317;43.994;22.878;2023-04-28T03:32:29;101561.25;;;8.68;47.26
6567;BME280;3317;43.994;22.878;2023-04-28T03:34:56;101563.19;;;8.66;47.85
6567;BME280;3317;43.994;22.878;2023-04-28T03:37:23;101553.25;;;8.55;47.29
6567;BME280;3317;43.994;22.878;2023-04-28T03:39:52;101575.25;;;8.62;47.26
6567;BME280;3317;43.994;22.878;2023-04-28T03:42:19;101519.19;;;8.29;46.65
6567;BME280;3317;43.994;22.878;2023-04-28T03:44:45;101572.78;;;8.58;45.83
6567;BME280;3317;43.994;22.878;2023-04-28T03:47:12;101573.88;;;8.56;46.52
6567;BME280;3317;43.994;22.878;2023-04-28T03:49:39;101582.72;;;8.58;46.24
6567;BME280;3317;43.994;22.878;2023-04-28T03:52:06;101530.44;;;8.23;46.37
6567;BME280;3317;43.994;22.878;2023-04-28T03:54:33;101592.06;;;8.54;46.46
6567;BME280;3317;43.994;22.878;2023-04-28T03:57:01;101587.75;;;8.51;47.41
6567;BME280;3317;43.994;22.878;2023-04-28T03:59:28;101596.84;;;8.50;47.06
6567;BME280;3317;43.994;22.878;2023-04-28T04:01:56;101596.84;;;8.50;47.30
6567;BME280;3317;43.994;22.878;2023-04-28T04:04:23;101595.84;;;8.51;46.54
6567;BME280;3317;43.994;22.878;2023-04-28T04:06:50;101605.66;;;8.52;46.85
6567;BME280;3317;43.994;22.878;2023-04-28T04:09:17;101602.22;;;8.50;47.20
6567;BME280;3317;43.994;22.878;2023-04-28T04:11:44;101600.28;;;8.52;48.11
6567;BME280;3317;43.994;22.878;2023-04-28T04:14:13;101601.78;;;8.56;49.27
6567;BME280;3317;43.994;22.878;2023-04-28T04:16:40;101602.63;;;8.57;48.47
6567;BME280;3317;43.994;22.878;2023-04-28T04:19:06;101611.47;;;8.59;48.55
6567;BME280;3317;43.994;22.878;2023-04-28T04:21:33;101607.56;;;8.63;48.50
6567;BME280;3317;43.994;22.878;2023-04-28T04:24:00;101609.03;;;8.67;48.14
6567;BME280;3317;43.994;22.878;2023-04-28T04:26:27;101610.41;;;8.73;48.38
6567;BME280;3317;43.994;22.878;2023-04-28T04:28:54;101601.78;;;8.79;48.79
6567;BME280;3317;43.994;22.878;2023-04-28T04:31:22;101602.94;;;8.88;48.07
6567;BME280;3317;43.994;22.878;2023-04-28T04:33:49;101603.31;;;8.95;48.65
6567;BME280;3317;43.994;22.878;2023-04-28T04:36:17;101606.25;;;9.03;48.25
6567;BME280;3317;43.994;22.878;2023-04-28T04:38:43;101608.22;;;9.12;48.21
6567;BME280;3317;43.994;22.878;2023-04-28T04:41:10;101610.19;;;9.22;47.76
6567;BME280;3317;43.994;22.878;2023-04-28T04:43:37;101617.69;;;9.29;47.79
6567;BME280;3317;43.994;22.878;2023-04-28T04:46:04;101605.50;;;9.35;47.43
6567;BME280;3317;43.994;22.878;2023-04-28T04:48:32;101618.63;;;9.51;47.27
6567;BME280;3317;43.994;22.878;2023-04-28T04:50:59;101623.28;;;9.61;46.86
6567;BME280;3317;43.994;22.878;2023-04-28T04:53:26;101624.16;;;9.72;46.55
6567;BME280;3317;43.994;22.878;2023-04-28T04:55:53;101620.81;;;9.80;46.17
6567;BME280;3317;43.994;22.878;2023-04-28T04:58:20;101618.44;;;9.87;46.01
6567;BME280;3317;43.994;22.878;2023-04-28T05:00:47;101622.13;;;9.97;46.50
6567;BME280;3317;43.994;22.878;2023-04-28T05:03:14;101618.50;;;10.08;46.10
6567;BME280;3317;43.994;22.878;2023-04-28T05:05:43;101619.44;;;10.19;45.89
6567;BME280;3317;43.994;22.878;2023-04-28T05:08:10;101622.69;;;10.34;46.02
6567;BME280;3317;43.994;22.878;2023-04-28T05:10:37;101608.38;;;10.43;45.94
6567;BME280;3317;43.994;22.878;2023-04-28T05:13:04;101624.03;;;10.61;45.87
6567;BME280;3317;43.994;22.878;2023-04-28T05:15:31;101620.28;;;10.73;45.26
6567;BME280;3317;43.994;22.878;2023-04-28T05:17:58;101619.97;;;10.88;45.07
6567;BME280;3317;43.994;22.878;2023-04-28T05:20:25;101619.59;;;11.02;45.41
6567;BME280;3317;43.994;22.878;2023-04-28T05:22:53;101614.81;;;11.16;45.37
6567;BME280;3317;43.994;22.878;2023-04-28T05:25:20;101614.03;;;11.35;45.01
6567;BME280;3317;43.994;22.878;2023-04-28T05:27:47;101615.94;;;11.54;44.46
6567;BME280;3317;43.994;22.878;2023-04-28T05:30:14;101616.25;;;11.71;44.20
6567;BME280;3317;43.994;22.878;2023-04-28T05:32:41;101621.56;;;11.82;44.26
6567;BME280;3317;43.994;22.878;2023-04-28T05:35:08;101622.88;;;11.97;44.39
6567;BME280;3317;43.994;22.878;2023-04-28T05:37:35;101623.19;;;12.14;43.93
6567;BME280;3317;43.994;22.878;2023-04-28T05:40:06;101613.91;;;12.27;43.79
6567;BME280;3317;43.994;22.878;2023-04-28T05:42:33;101621.75;;;12.49;43.54
6567;BME280;3317;43.994;22.878;2023-04-28T05:44:59;101625.59;;;12.66;43.27
6567;BME280;3317;43.994;22.878;2023-04-28T05:47:27;101630.44;;;12.82;43.47
6567;BME280;3317;43.994;22.878;2023-04-28T05:49:54;101625.22;;;12.99;42.98
6567;BME280;3317;43.994;22.878;2023-04-28T05:52:21;101628.88;;;13.18;42.96
6567;BME280;3317;43.994;22.878;2023-04-28T05:54:48;101631.09;;;13.32;42.47
6567;BME280;3317;43.994;22.878;2023-04-28T05:57:16;101631.34;;;13.49;42.13
6567;BME280;3317;43.994;22.878;2023-04-28T05:59:43;101634.66;;;13.71;41.98
6567;BME280;3317;43.994;22.878;2023-04-28T06:02:10;101634.00;;;13.87;41.18
6567;BME280;3317;43.994;22.878;2023-04-28T06:04:37;101622.09;;;14.06;41.19
6567;BME280;3317;43.994;22.878;2023-04-28T06:07:05;101632.84;;;14.26;40.66
6567;BME280;3317;43.994;22.878;2023-04-28T06:09:32;101634.94;;;14.50;41.71
6567;BME280;3317;43.994;22.878;2023-04-28T06:11:58;101630.13;;;14.70;41.00
6567;BME280;3317;43.994;22.878;2023-04-28T06:14:27;101633.19;;;14.85;39.77
6567;BME280;3317;43.994;22.878;2023-04-28T06:16:54;101582.28;;;14.76;39.62
6567;BME280;3317;43.994;22.878;2023-04-28T06:19:20;101627.81;;;15.28;39.89
6567;BME280;3317;43.994;22.878;2023-04-28T06:21:47;101624.09;;;15.46;39.71
6567;BME280;3317;43.994;22.878;2023-04-28T06:24:17;101625.03;;;15.63;39.06
6567;BME280;3317;43.994;22.878;2023-04-28T06:26:44;101635.16;;;15.87;38.66
6567;BME280;3317;43.994;22.878;2023-04-28T06:29:10;101629.25;;;16.09;38.94
6567;BME280;3317;43.994;22.878;2023-04-28T06:31:39;101635.25;;;16.29;39.36
6567;BME280;3317;43.994;22.878;2023-04-28T06:34:06;101632.19;;;16.49;37.53
6567;BME280;3317;43.994;22.878;2023-04-28T06:36:33;101622.94;;;16.66;37.29
6567;BME280;3317;43.994;22.878;2023-04-28T06:39:00;101631.81;;;16.85;36.04
6567;BME280;3317;43.994;22.878;2023-04-28T06:41:27;101635.06;;;17.05;35.04
6567;BME280;3317;43.994;22.878;2023-04-28T06:43:54;101626.44;;;17.25;34.39
6567;BME280;3317;43.994;22.878;2023-04-28T06:46:21;101634.56;;;17.41;34.17
6567;BME280;3317;43.994;22.878;2023-04-28T06:48:49;101631.28;;;17.54;33.14
6567;BME280;3317;43.994;22.878;2023-04-28T06:51:17;101634.00;;;17.63;31.93
6567;BME280;3317;43.994;22.878;2023-04-28T06:53:43;101635.97;;;17.77;32.45
6567;BME280;3317;43.994;22.878;2023-04-28T06:56:10;101635.88;;;17.94;33.03
6567;BME280;3317;43.994;22.878;2023-04-28T06:58:38;101640.22;;;18.11;33.06
6567;BME280;3317;43.994;22.878;2023-04-28T07:01:04;101630.38;;;18.25;32.72
6567;BME280;3317;43.994;22.878;2023-04-28T07:03:32;101637.97;;;18.38;32.18
6567;BME280;3317;43.994;22.878;2023-04-28T07:06:00;101630.09;;;18.58;33.80
6567;BME280;3317;43.994;22.878;2023-04-28T07:08:28;101624.63;;;18.74;32.35
6567;BME280;3317;43.994;22.878;2023-04-28T07:10:55;101631.19;;;18.88;32.37
6567;BME280;3317;43.994;22.878;2023-04-28T07:13:22;101628.78;;;19.08;33.22
6567;BME280;3317;43.994;22.878;2023-04-28T07:15:49;101624.03;;;19.32;32.58
6567;BME280;3317;43.994;22.878;2023-04-28T07:18:16;101624.88;;;19.47;31.78
6567;BME280;3317;43.994;22.878;2023-04-28T07:20:43;101628.19;;;19.58;30.58
6567;BME280;3317;43.994;22.878;2023-04-28T07:23:14;101632.78;;;19.72;30.47
6567;BME280;3317;43.994;22.878;2023-04-28T07:25:41;101633.06;;;19.92;30.40
6567;BME280;3317;43.994;22.878;2023-04-28T07:28:08;101618.72;;;19.97;29.92
6567;BME280;3317;43.994;22.878;2023-04-28T07:30:35;101626.31;;;20.17;29.72
6567;BME280;3317;43.994;22.878;2023-04-28T07:33:02;101621.16;;;20.29;29.48
6567;BME280;3317;43.994;22.878;2023-04-28T07:35:29;101628.13;;;20.53;30.48
6567;BME280;3317;43.994;22.878;2023-04-28T07:37:56;101619.19;;;20.73;31.37
6567;BME280;3317;43.994;22.878;2023-04-28T07:40:25;101631.72;;;21.04;30.25
6567;BME280;3317;43.994;22.878;2023-04-28T07:42:51;101633.53;;;21.25;30.01
6567;BME280;3317;43.994;22.878;2023-04-28T07:45:19;101631.28;;;21.42;28.64
6567;BME280;3317;43.994;22.878;2023-04-28T07:47:45;101626.72;;;21.63;26.74
6567;BME280;3317;43.994;22.878;2023-04-28T07:50:12;101629.09;;;21.66;26.33
6567;BME280;3317;43.994;22.878;2023-04-28T07:52:40;101630.38;;;21.77;26.45
6567;BME280;3317;43.994;22.878;2023-04-28T07:55:07;101624.47;;;21.93;26.58
6567;BME280;3317;43.994;22.878;2023-04-28T07:57:36;101627.06;;;22.08;26.05
6567;BME280;3317;43.994;22.878;2023-04-28T08:00:04;101626.88;;;22.17;25.81
6567;BME280;3317;43.994;22.878;2023-04-28T08:02:31;101623.91;;;22.25;24.98
6567;BME280;3317;43.994;22.878;2023-04-28T08:04:58;101609.69;;;22.28;25.99
6567;BME280;3317;43.994;22.878;2023-04-28T08:07:25;101622.06;;;22.59;26.42
6567;BME280;3317;43.994;22.878;2023-04-28T08:09:52;101628.22;;;22.55;25.24
6567;BME280;3317;43.994;22.878;2023-04-28T08:12:19;101620.75;;;22.35;24.98
6567;BME280;3317;43.994;22.878;2023-04-28T08:14:48;101620.09;;;22.26;25.15
6567;BME280;3317;43.994;22.878;2023-04-28T08:17:14;101611.41;;;22.36;25.27
6567;BME280;3317;43.994;22.878;2023-04-28T08:19:43;101611.16;;;22.37;24.56
6567;BME280;3317;43.994;22.878;2023-04-28T08:22:10;101596.97;;;22.47;25.83
6567;BME280;3317;43.994;22.878;2023-04-28T08:24:38;101605.47;;;22.66;25.27
6567;BME280;3317;43.994;22.878;2023-04-28T08:27:05;101602.47;;;22.88;27.40
6567;BME280;3317;43.994;22.878;2023-04-28T08:29:32;101608.00;;;22.81;23.83
6567;BME280;3317;43.994;22.878;2023-04-28T08:32:00;101605.03;;;22.76;24.28
6567;BME280;3317;43.994;22.878;2023-04-28T08:34:27;101595.91;;;22.82;25.72
6567;BME280;3317;43.994;22.878;2023-04-28T08:36:54;101591.78;;;22.98;26.34
6567;BME280;3317;43.994;22.878;2023-04-28T08:39:21;101598.69;;;23.48;26.48
6567;BME280;3317;43.994;22.878;2023-04-28T08:41:48;101595.75;;;23.82;27.77
6567;BME280;3317;43.994;22.878;2023-04-28T08:44:16;101539.84;;;23.66;25.21
6567;BME280;3317;43.994;22.878;2023-04-28T08:46:44;101586.91;;;24.05;24.25
6567;BME280;3317;43.994;22.878;2023-04-28T08:49:14;101597.75;;;24.00;22.51
6567;BME280;3317;43.994;22.878;2023-04-28T08:51:44;101594.91;;;23.81;22.82
6567;BME280;3317;43.994;22.878;2023-04-28T08:54:13;101596.53;;;23.57;23.43
6567;BME280;3317;43.994;22.878;2023-04-28T08:56:41;101593.47;;;23.19;23.08
6567;BME280;3317;43.994;22.878;2023-04-28T08:59:10;101600.25;;;23.30;25.15
6567;BME280;3317;43.994;22.878;2023-04-28T09:01:37;101588.00;;;23.58;24.59
6567;BME280;3317;43.994;22.878;2023-04-28T09:04:04;101589.78;;;23.85;24.62
6567;BME280;3317;43.994;22.878;2023-04-28T09:06:34;101581.19;;;23.93;23.43
6567;BME280;3317;43.994;22.878;2023-04-28T09:09:21;101573.69;;;24.00;23.25
6567;BME280;3317;43.994;22.878;2023-04-28T09:11:53;101570.13;;;23.93;22.99
6567;BME280;3317;43.994;22.878;2023-04-28T09:14:21;101583.47;;;24.10;24.05
6567;BME280;3317;43.994;22.878;2023-04-28T09:17:10;101574.16;;;23.58;22.70
6567;BME280;3317;43.994;22.878;2023-04-28T09:19:38;101584.41;;;23.58;23.12
6567;BME280;3317;43.994;22.878;2023-04-28T09:22:08;101580.31;;;23.60;24.18
6567;BME280;3317;43.994;22.878;2023-04-28T09:24:37;101574.41;;;23.57;22.69
6567;BME280;3317;43.994;22.878;2023-04-28T09:27:06;101589.31;;;22.70;22.87
6567;BME280;3317;43.994;22.878;2023-04-28T09:29:35;101584.59;;;21.96;24.83
6567;BME280;3317;43.994;22.878;2023-04-28T09:32:13;101577.34;;;21.75;24.30
6567;BME280;3317;43.994;22.878;2023-04-28T09:34:44;101562.78;;;21.39;24.43
6567;BME280;3317;43.994;22.878;2023-04-28T09:37:16;101580.19;;;21.53;24.50
6567;BME280;3317;43.994;22.878;2023-04-28T09:39:44;101535.16;;;21.26;24.51
6567;BME280;3317;43.994;22.878;2023-04-28T09:42:30;101574.50;;;21.55;24.16
6567;BME280;3317;43.994;22.878;2023-04-28T09:44:57;101569.09;;;21.88;26.02
6567;BME280;3317;43.994;22.878;2023-04-28T09:47:24;101566.78;;;22.46;25.85
6567;BME280;3317;43.994;22.878;2023-04-28T09:49:54;101554.81;;;23.06;24.74
6567;BME280;3317;43.994;22.878;2023-04-28T09:52:23;101553.06;;;23.18;23.10
6567;BME280;3317;43.994;22.878;2023-04-28T09:54:51;101560.41;;;22.79;22.25
6567;BME280;3317;43.994;22.878;2023-04-28T09:57:19;101553.81;;;22.33;23.00
6567;BME280;3317;43.994;22.878;2023-04-28T09:59:47;101535.78;;;21.97;23.50
6567;BME280;3317;43.994;22.878;2023-04-28T10:02:15;101543.66;;;22.20;24.33
6567;BME280;3317;43.994;22.878;2023-04-28T10:04:44;101538.31;;;22.79;24.76
6567;BME280;3317;43.994;22.878;2023-04-28T10:07:11;101532.19;;;23.23;23.38
6567;BME280;3317;43.994;22.878;2023-04-28T10:09:42;101512.09;;;23.47;23.11
6567;BME280;3317;43.994;22.878;2023-04-28T10:12:12;101520.22;;;23.74;24.20
6567;BME280;3317;43.994;22.878;2023-04-28T10:14:40;101507.94;;;23.96;23.49
6567;BME280;3317;43.994;22.878;2023-04-28T10:17:07;101501.50;;;24.09;22.03
6567;BME280;3317;43.994;22.878;2023-04-28T10:19:34;101501.53;;;23.95;21.75
6567;BME280;3317;43.994;22.878;2023-04-28T10:22:16;101502.38;;;23.38;21.94
6567;BME280;3317;43.994;22.878;2023-04-28T10:24:58;101480.28;;;22.79;22.79
6567;BME280;3317;43.994;22.878;2023-04-28T10:27:30;101491.41;;;22.18;23.23
6567;BME280;3317;43.994;22.878;2023-04-28T10:30:09;101492.41;;;21.63;23.60
6567;BME280;3317;43.994;22.878;2023-04-28T10:32:37;101489.31;;;21.11;24.24
6567;BME280;3317;43.994;22.878;2023-04-28T10:35:41;101486.28;;;20.99;24.68
6567;BME280;3317;43.994;22.878;2023-04-28T10:38:10;101476.81;;;20.73;25.11
6567;BME280;3317;43.994;22.878;2023-04-28T10:40:40;101471.81;;;20.84;24.94
6567;BME280;3317;43.994;22.878;2023-04-28T10:43:08;101468.97;;;21.12;26.12
6567;BME280;3317;43.994;22.878;2023-04-28T10:46:01;101449.81;;;21.86;26.53
6567;BME280;3317;43.994;22.878;2023-04-28T10:49:03;101441.03;;;22.50;25.96
6567;BME280;3317;43.994;22.878;2023-04-28T10:51:31;101439.50;;;22.74;24.54
6567;BME280;3317;43.994;22.878;2023-04-28T10:54:14;101436.06;;;22.86;23.73
6567;BME280;3317;43.994;22.878;2023-04-28T10:59:43;101427.09;;;22.84;23.51
6567;BME280;3317;43.994;22.878;2023-04-28T11:02:43;101428.41;;;23.20;23.54
6567;BME280;3317;43.994;22.878;2023-04-28T11:05:13;101429.47;;;23.58;24.50
6567;BME280;3317;43.994;22.878;2023-04-28T11:11:20;101398.13;;;24.15;22.93
6567;BME280;3317;43.994;22.878;2023-04-28T11:13:48;101420.75;;;24.68;23.08
6567;BME280;3317;43.994;22.878;2023-04-28T11:16:19;101421.28;;;24.95;22.40
6567;BME280;3317;43.994;22.878;2023-04-28T11:18:49;101419.22;;;25.21;22.30
6567;BME280;3317;43.994;22.878;2023-04-28T11:21:16;101397.97;;;25.15;21.70
6567;BME280;3317;43.994;22.878;2023-04-28T11:23:44;101415.69;;;24.83;21.47
6567;BME280;3317;43.994;22.878;2023-04-28T11:26:11;101411.91;;;24.59;21.89
6567;BME280;3317;43.994;22.878;2023-04-28T11:28:46;101407.66;;;24.56;21.33
6567;BME280;3317;43.994;22.878;2023-04-28T11:31:14;101396.28;;;24.46;21.45
6567;BME280;3317;43.994;22.878;2023-04-28T11:33:45;101408.59;;;24.50;22.45
6567;BME280;3317;43.994;22.878;2023-04-28T11:36:22;101419.19;;;24.16;22.46
6567;BME280;3317;43.994;22.878;2023-04-28T11:38:49;101385.88;;;22.89;22.79
6567;BME280;3317;43.994;22.878;2023-04-28T11:41:16;101417.72;;;22.91;23.29
6567;BME280;3317;43.994;22.878;2023-04-28T11:43:43;101404.72;;;22.99;23.96
6567;BME280;3317;43.994;22.878;2023-04-28T11:46:15;101395.81;;;22.97;23.22
6567;BME280;3317;43.994;22.878;2023-04-28T11:48:44;101405.81;;;22.91;24.06
6567;BME280;3317;43.994;22.878;2023-04-28T11:51:31;101397.56;;;22.84;23.73
6567;BME280;3317;43.994;22.878;2023-04-28T11:53:58;101402.38;;;22.50;23.54
6567;BME280;3317;43.994;22.878;2023-04-28T11:56:26;101400.34;;;21.98;23.81
6567;BME280;3317;43.994;22.878;2023-04-28T11:59:00;101395.44;;;21.60;25.13
6567;BME280;3317;43.994;22.878;2023-04-28T12:01:28;101396.06;;;21.48;24.95
6567;BME280;3317;43.994;22.878;2023-04-28T12:03:57;101402.25;;;21.50;24.71
6567;BME280;3317;43.994;22.878;2023-04-28T12:06:24;101396.94;;;21.35;24.90
6567;BME280;3317;43.994;22.878;2023-04-28T12:08:52;101377.22;;;21.45;25.61
6567;BME280;3317;43.994;22.878;2023-04-28T12:11:19;101363.41;;;21.59;25.19
6567;BME280;3317;43.994;22.878;2023-04-28T12:14:02;101381.88;;;21.99;25.55
6567;BME280;3317;43.994;22.878;2023-04-28T12:16:37;101384.81;;;22.17;25.47
6567;BME280;3317;43.994;22.878;2023-04-28T12:19:09;101330.28;;;21.99;25.29
6567;BME280;3317;43.994;22.878;2023-04-28T12:21:37;101376.97;;;22.21;25.69
6567;BME280;3317;43.994;22.878;2023-04-28T12:24:18;101374.03;;;22.09;24.81
6567;BME280;3317;43.994;22.878;2023-04-28T12:26:46;101363.38;;;22.13;25.17
6567;BME280;3317;43.994;22.878;2023-04-28T12:29:36;101357.03;;;22.05;25.58
6567;BME280;3317;43.994;22.878;2023-04-28T12:32:07;101357.50;;;21.96;24.98
6567;BME280;3317;43.994;22.878;2023-04-28T12:34:36;101373.19;;;21.95;25.53
6567;BME280;3317;43.994;22.878;2023-04-28T12:37:04;101351.56;;;21.92;25.58
6567;BME280;3317;43.994;22.878;2023-04-28T12:39:31;101352.84;;;21.76;25.70
6567;BME280;3317;43.994;22.878;2023-04-28T12:41:59;101354.50;;;21.36;26.02
6567;BME280;3317;43.994;22.878;2023-04-28T12:44:26;101355.31;;;21.03;26.44
6567;BME280;3317;43.994;22.878;2023-04-28T12:46:53;101344.69;;;20.93;26.65
6567;BME280;3317;43.994;22.878;2023-04-28T12:49:21;101337.47;;;20.86;26.83
6567;BME280;3317;43.994;22.878;2023-04-28T12:51:49;101337.50;;;20.92;27.34
6567;BME280;3317;43.994;22.878;2023-04-28T12:54:16;101329.06;;;21.14;27.38
6567;BME280;3317;43.994;22.878;2023-04-28T12:56:43;101333.31;;;21.23;27.22
6567;BME280;3317;43.994;22.878;2023-04-28T12:59:10;101332.84;;;21.00;26.92
6567;BME280;3317;43.994;22.878;2023-04-28T13:01:37;101323.78;;;20.57;27.12
6567;BME280;3317;43.994;22.878;2023-04-28T13:04:04;101333.09;;;20.56;27.24
6567;BME280;3317;43.994;22.878;2023-04-28T13:06:31;101315.97;;;20.54;27.46
6567;BME280;3317;43.994;22.878;2023-04-28T13:09:01;101305.81;;;20.61;27.59
6567;BME280;3317;43.994;22.878;2023-04-28T13:11:28;101301.41;;;20.67;27.88
6567;BME280;3317;43.994;22.878;2023-04-28T13:13:55;101293.31;;;20.59;26.98
6567;BME280;3317;43.994;22.878;2023-04-28T13:16:22;101295.59;;;20.48;27.24